createdAt,value
2022-08-17T00:02:25.887Z,99356.06
2022-08-17T00:04:54.292Z,99354.47
2022-08-17T00:07:21.249Z,99351.88
2022-08-17T00:09:47.724Z,99357.34
2022-08-17T00:12:40.986Z,99354.28
2022-08-17T00:15:01.245Z,99360.25
2022-08-17T00:17:27.978Z,99358.72
2022-08-17T00:19:54.426Z,99363.84
2022-08-17T00:22:32.001Z,99359.69
2022-08-17T00:25:09.584Z,99361.53
2022-08-17T00:27:36.929Z,99351.97
2022-08-17T00:30:05.989Z,99367.22
2022-08-17T00:33:14.245Z,99362.16
2022-08-17T00:35:27.917Z,99363.94
2022-08-17T00:37:54.727Z,99364.41
2022-08-17T00:40:21.342Z,99358.84
2022-08-17T00:42:51.276Z,99355.75
2022-08-17T00:45:20.239Z,99363.28
2022-08-17T00:47:47.023Z,99357.44
2022-08-17T00:50:18.293Z,99362.78
2022-08-17T00:52:54.754Z,99355.88
2022-08-17T00:55:23.133Z,99359.69
2022-08-17T00:57:55.362Z,99358.19
2022-08-17T01:00:26.739Z,99356.97
2022-08-17T01:02:58.105Z,99349.72
2022-08-17T01:05:27.010Z,99352.94
2022-08-17T01:07:57.365Z,99361.00
2022-08-17T01:11:00.084Z,99358.78
2022-08-17T01:13:20.866Z,99360.28
2022-08-17T01:15:57.860Z,99358.50
2022-08-17T01:18:26.260Z,99365.50
2022-08-17T01:20:55.293Z,99366.81
2022-08-17T01:23:25.014Z,99366.81
2022-08-17T01:25:54.429Z,99371.44
2022-08-17T01:28:52.832Z,99372.75
2022-08-17T01:31:10.817Z,99365.38
2022-08-17T01:33:37.913Z,99367.41
2022-08-17T01:36:07.191Z,99369.16
2022-08-17T01:38:35.325Z,99365.25
2022-08-17T01:41:06.783Z,99368.09
2022-08-17T01:43:39.850Z,99366.66
2022-08-17T01:46:07.005Z,99362.59
2022-08-17T01:48:35.737Z,99371.13
2022-08-17T01:51:03.255Z,99368.03
2022-08-17T01:53:35.052Z,99372.31
2022-08-17T01:56:07.005Z,99374.06
2022-08-17T01:58:35.309Z,99370.34
2022-08-17T02:01:02.774Z,99363.66
2022-08-17T02:03:30.090Z,99368.53
2022-08-17T02:05:57.011Z,99371.34
2022-08-17T02:08:37.135Z,99374.16
2022-08-17T02:11:11.709Z,99375.69
2022-08-17T02:13:38.989Z,99383.75
2022-08-17T02:16:05.743Z,99377.69
2022-08-17T02:18:32.603Z,99369.13
2022-08-17T02:20:59.751Z,99373.13
2022-08-17T02:23:29.410Z,99372.53
2022-08-17T02:25:58.751Z,99361.16
2022-08-17T02:28:25.522Z,99363.13
2022-08-17T02:31:01.081Z,99365.03
2022-08-17T02:33:43.298Z,99366.31
2022-08-17T02:36:12.011Z,99367.03
2022-08-17T02:38:39.413Z,99364.34
2022-08-17T02:41:06.323Z,99368.00
2022-08-17T02:43:32.943Z,99366.78
2022-08-17T02:45:59.671Z,99365.59
2022-08-17T02:48:30.653Z,99361.03
2022-08-17T02:50:58.451Z,99359.97
2022-08-17T02:53:25.748Z,99364.22
2022-08-17T02:55:52.780Z,99371.84
2022-08-17T02:58:34.370Z,99362.44
2022-08-17T03:01:06.392Z,99362.06
2022-08-17T03:03:33.693Z,99364.63
2022-08-17T03:06:00.411Z,99360.28
2022-08-17T03:08:27.319Z,99361.56
2022-08-17T03:10:53.822Z,99353.84
2022-08-17T03:13:20.704Z,99356.19
2022-08-17T03:15:48.493Z,99359.38
2022-08-17T03:18:24.295Z,99352.03
2022-08-17T03:20:59.088Z,99357.88
2022-08-17T03:23:27.296Z,99351.63
2022-08-17T03:25:55.059Z,99349.34
2022-08-17T03:28:23.309Z,99352.28
2022-08-17T03:30:51.125Z,99338.28
2022-08-17T03:33:18.301Z,99348.34
2022-08-17T03:35:45.187Z,99345.03
2022-08-17T03:38:15.056Z,99347.59
2022-08-17T03:40:58.109Z,99346.38
2022-08-17T03:43:30.307Z,99350.16
2022-08-17T03:46:28.386Z,99348.03
2022-08-17T03:49:22.594Z,99336.47
2022-08-17T03:52:07.826Z,99342.13
2022-08-17T03:54:53.348Z,99338.00
2022-08-17T03:57:19.842Z,99342.25
2022-08-17T03:59:46.293Z,99335.13
2022-08-17T04:02:24.237Z,99344.38
2022-08-17T04:04:51.441Z,99340.13
2022-08-17T04:07:23.397Z,99345.78
2022-08-17T04:09:50.375Z,99340.28
2022-08-17T04:12:19.780Z,99339.06
2022-08-17T04:14:53.307Z,99342.63
2022-08-17T04:17:28.445Z,99346.84
2022-08-17T04:19:55.750Z,99350.97
2022-08-17T04:22:30.461Z,99351.41
2022-08-17T04:25:18.321Z,99357.09
2022-08-17T04:27:44.769Z,99369.22
2022-08-17T04:30:12.153Z,99364.84
2022-08-17T04:33:06.075Z,99368.16
2022-08-17T04:35:54.037Z,99372.31
2022-08-17T04:38:24.183Z,99370.06
2022-08-17T04:41:09.509Z,99371.56
2022-08-17T04:43:37.800Z,99379.81
2022-08-17T04:46:07.118Z,99383.94
2022-08-17T04:48:37.476Z,99384.69
2022-08-17T04:51:15.925Z,99392.19
2022-08-17T04:53:44.554Z,99393.63
2022-08-17T04:56:16.648Z,99400.06
2022-08-17T04:58:47.812Z,99399.56
2022-08-17T05:01:16.308Z,99404.69
2022-08-17T05:03:50.390Z,99398.78
2022-08-17T05:06:16.863Z,99407.66
2022-08-17T05:08:43.270Z,99408.25
2022-08-17T05:11:10.153Z,99408.63
2022-08-17T05:13:36.688Z,99403.41
2022-08-17T05:16:04.640Z,99406.56
2022-08-17T05:18:31.248Z,99401.47
2022-08-17T05:20:58.292Z,99407.56
2022-08-17T05:23:26.869Z,99417.34
2022-08-17T05:26:02.320Z,99411.09
2022-08-17T05:28:30.340Z,99409.34
2022-08-17T05:30:59.208Z,99416.53
2022-08-17T05:33:29.100Z,99412.94
2022-08-17T05:35:57.677Z,99410.81
2022-08-17T05:38:26.838Z,99411.56
2022-08-17T05:40:54.364Z,99414.31
2022-08-17T05:43:24.955Z,99416.97
2022-08-17T05:46:01.039Z,99422.19
2022-08-17T05:48:35.671Z,99407.81
2022-08-17T05:51:25.928Z,99414.50
2022-08-17T05:54:14.903Z,99417.63
2022-08-17T05:56:49.049Z,99418.59
2022-08-17T05:59:34.301Z,99430.50
2022-08-17T06:02:19.033Z,99421.13
2022-08-17T06:05:06.145Z,99424.06
2022-08-17T06:07:49.297Z,99422.66
2022-08-17T06:10:37.774Z,99422.28
2022-08-17T06:13:35.339Z,99432.75
2022-08-17T06:16:05.276Z,99435.25
2022-08-17T06:19:14.785Z,99445.91
2022-08-17T06:21:44.159Z,99440.56
2022-08-17T06:24:35.498Z,99447.00
2022-08-17T06:27:09.515Z,99441.69
2022-08-17T06:30:02.436Z,99426.25
2022-08-17T06:32:29.015Z,99434.66
2022-08-17T06:34:55.678Z,99438.16
2022-08-17T06:37:32.599Z,99435.25
2022-08-17T06:40:20.525Z,99442.78
2022-08-17T06:43:07.535Z,99445.72
2022-08-17T06:45:42.052Z,99443.16
2022-08-17T06:48:24.412Z,99444.59
2022-08-17T06:50:59.894Z,99448.22
2022-08-17T06:53:45.458Z,99452.59
2022-08-17T06:56:14.390Z,99446.47
2022-08-17T06:58:43.354Z,99439.59
2022-08-17T07:01:20.021Z,99445.31
2022-08-17T07:03:49.806Z,99434.16
2022-08-17T07:06:19.262Z,99438.78
2022-08-17T07:08:54.061Z,99442.66
2022-08-17T07:11:28.496Z,99435.75
2022-08-17T07:14:36.826Z,99437.91
2022-08-17T07:17:08.250Z,99437.66
2022-08-17T07:19:40.542Z,99434.84
2022-08-17T07:22:57.230Z,99437.34
2022-08-17T07:25:18.455Z,99441.97
2022-08-17T07:27:53.777Z,99446.72
2022-08-17T07:30:26.516Z,99449.59
2022-08-17T07:32:57.810Z,99433.09
2022-08-17T07:35:34.414Z,99439.31
2022-08-17T07:38:24.731Z,99436.31
2022-08-17T07:41:05.298Z,99440.25
2022-08-17T07:43:41.701Z,99439.78
2022-08-17T07:46:29.609Z,99449.75
2022-08-17T07:49:06.708Z,99451.16
2022-08-17T07:51:37.946Z,99443.31
2022-08-17T07:54:22.586Z,99444.66
2022-08-17T07:56:55.235Z,99438.25
2022-08-17T07:59:33.360Z,99453.50
2022-08-17T08:02:08.061Z,99454.69
2022-08-17T08:04:59.581Z,99450.66
2022-08-17T08:08:00.045Z,99444.53
2022-08-17T08:10:32.230Z,99440.16
2022-08-17T08:13:12.274Z,99439.00
2022-08-17T08:15:44.998Z,99437.88
2022-08-17T08:18:54.473Z,99442.63
2022-08-17T08:21:13.160Z,99442.53
2022-08-17T08:24:09.651Z,99449.00
2022-08-17T08:26:57.081Z,99448.06
2022-08-17T08:30:00.900Z,99444.63
2022-08-17T08:32:57.257Z,99438.63
2022-08-17T08:35:34.972Z,99436.72
2022-08-17T08:38:10.932Z,99438.41
2022-08-17T08:40:52.625Z,99435.44
2022-08-17T08:43:36.237Z,99440.91
2022-08-17T08:46:27.219Z,99444.44
2022-08-17T08:49:10.106Z,99433.56
2022-08-17T08:51:49.361Z,99439.19
2022-08-17T08:54:45.708Z,99431.19
2022-08-17T08:57:32.658Z,99435.63
2022-08-17T09:00:20.150Z,99430.09
2022-08-17T09:03:31.583Z,99434.16
2022-08-17T09:06:32.167Z,99440.06
2022-08-17T09:09:24.290Z,99430.78
2022-08-17T09:12:20.442Z,99440.94
2022-08-17T09:14:51.929Z,99437.91
2022-08-17T09:17:27.174Z,99438.53
2022-08-17T09:19:59.735Z,99431.53
2022-08-17T09:22:37.800Z,99430.66
2022-08-17T09:25:14.462Z,99429.81
2022-08-17T09:28:03.705Z,99419.63
2022-08-17T09:30:44.582Z,99430.88
2022-08-17T09:33:15.033Z,99427.59
2022-08-17T09:35:48.653Z,99424.00
2022-08-17T09:38:32.176Z,99419.63
2022-08-17T09:40:59.221Z,99423.44
2022-08-17T09:43:54.584Z,99422.09
2022-08-17T09:46:28.661Z,99422.00
2022-08-17T09:49:16.146Z,99409.63
2022-08-17T09:51:49.655Z,99414.25
2022-08-17T09:54:39.210Z,99407.03
2022-08-17T09:57:31.058Z,99418.09
2022-08-17T10:00:09.983Z,99419.16
2022-08-17T10:03:11.801Z,99421.56
2022-08-17T10:06:08.387Z,99416.41
2022-08-17T10:08:42.547Z,99416.09
2022-08-17T10:11:50.590Z,99405.50
2022-08-17T10:14:37.653Z,99406.34
2022-08-17T10:18:18.285Z,99398.59
2022-08-17T10:21:31.388Z,99409.50
2022-08-17T10:24:33.753Z,99406.25
2022-08-17T10:27:02.120Z,99407.38
2022-08-17T10:29:46.263Z,99403.28
2022-08-17T10:32:32.220Z,99395.47
2022-08-17T10:35:17.832Z,99402.53
2022-08-17T10:37:59.211Z,99393.97
2022-08-17T10:40:35.502Z,99399.56
2022-08-17T10:43:24.680Z,99399.94
2022-08-17T10:46:30.102Z,99397.53
2022-08-17T10:49:15.851Z,99386.56
2022-08-17T10:51:42.659Z,99388.53
2022-08-17T10:54:24.491Z,99379.78
2022-08-17T10:56:56.014Z,99387.16
2022-08-17T10:59:34.711Z,99386.25
2022-08-17T11:02:01.097Z,99383.44
2022-08-17T11:05:00.251Z,99380.13
2022-08-17T11:07:45.798Z,99378.00
2022-08-17T11:10:35.104Z,99370.13
2022-08-17T11:13:23.161Z,99362.00
2022-08-17T11:16:11.589Z,99364.56
2022-08-17T11:18:57.765Z,99371.06
2022-08-17T11:21:58.625Z,99361.66
2022-08-17T11:24:37.787Z,99361.13
2022-08-17T11:27:13.587Z,99369.69
2022-08-17T11:29:58.114Z,99365.56
2022-08-17T11:32:47.378Z,99367.94
2022-08-17T11:35:20.665Z,99357.59
2022-08-17T11:38:13.556Z,99354.06
2022-08-17T11:41:05.544Z,99360.25
2022-08-17T11:43:49.821Z,99348.19
2022-08-17T11:46:22.142Z,99364.81
2022-08-17T11:49:27.312Z,99347.91
2022-08-17T11:52:01.049Z,99344.97
2022-08-17T11:54:33.249Z,99343.78
2022-08-17T11:57:41.725Z,99345.75
2022-08-17T12:00:51.804Z,99345.03
2022-08-17T12:03:26.327Z,99349.66
2022-08-17T12:06:03.012Z,99345.41
2022-08-17T12:08:32.641Z,99335.88
2022-08-17T12:11:03.905Z,99338.50
2022-08-17T12:13:39.870Z,99348.22
2022-08-17T12:16:08.219Z,99340.78
2022-08-17T12:18:41.739Z,99328.81
2022-08-17T12:21:26.277Z,99322.03
2022-08-17T12:24:10.275Z,99326.16
2022-08-17T12:26:37.645Z,99316.50
2022-08-17T12:29:07.163Z,99316.09
2022-08-17T12:31:44.243Z,99315.38
2022-08-17T12:34:40.828Z,99311.00
2022-08-17T12:37:19.474Z,99312.50
2022-08-17T12:40:06.666Z,99312.19
2022-08-17T12:42:37.460Z,99311.00
2022-08-17T12:45:07.454Z,99300.97
2022-08-17T12:47:37.118Z,99298.50
2022-08-17T12:50:29.516Z,99311.44
2022-08-17T12:53:01.699Z,99308.78
2022-08-17T12:55:32.479Z,99300.78
2022-08-17T12:58:00.814Z,99305.41
2022-08-17T13:00:31.839Z,99302.50
2022-08-17T13:03:16.937Z,99290.34
2022-08-17T13:05:57.472Z,99294.53
2022-08-17T13:08:36.003Z,99295.22
2022-08-17T13:11:13.456Z,99296.22
2022-08-17T13:13:44.997Z,99299.22
2022-08-17T13:16:11.417Z,99303.44
2022-08-17T13:18:43.077Z,99295.09
2022-08-17T13:21:22.078Z,99286.66
2022-08-17T13:23:56.253Z,99289.66
2022-08-17T13:26:37.614Z,99279.84
2022-08-17T13:29:51.617Z,99296.50
2022-08-17T13:32:43.893Z,99292.50
2022-08-17T13:35:38.954Z,99299.47
2022-08-17T13:38:09.480Z,99285.41
2022-08-17T13:40:41.583Z,99300.97
2022-08-17T13:43:08.857Z,99297.91
2022-08-17T13:45:41.068Z,99301.13
2022-08-17T13:48:08.695Z,99298.03
2022-08-17T13:50:45.414Z,99298.59
2022-08-17T13:53:40.249Z,99294.34
2022-08-17T13:56:36.981Z,99298.50
2022-08-17T13:59:02.795Z,99288.41
2022-08-17T14:01:30.921Z,99298.47
2022-08-17T14:03:58.477Z,99286.19
2022-08-17T14:06:52.990Z,99298.28
2022-08-17T14:09:14.834Z,99289.50
2022-08-17T14:11:42.003Z,99289.78
2022-08-17T14:14:08.730Z,99293.13
2022-08-17T14:16:35.315Z,99285.59
2022-08-17T14:19:02.591Z,99283.63
2022-08-17T14:21:29.088Z,99293.53
2022-08-17T14:23:55.784Z,99288.38
2022-08-17T14:26:23.227Z,99287.72
2022-08-17T14:28:56.600Z,99287.50
2022-08-17T14:31:23.516Z,99277.50
2022-08-17T14:33:50.046Z,99271.22
2022-08-17T14:36:16.571Z,99273.66
2022-08-17T14:38:45.005Z,99261.69
2022-08-17T14:41:11.569Z,99254.44
2022-08-17T14:43:39.628Z,99253.41
2022-08-17T14:46:06.265Z,99247.66
2022-08-17T14:48:34.987Z,99252.44
2022-08-17T14:51:01.573Z,99254.72
2022-08-17T14:53:28.106Z,99257.44
2022-08-17T14:55:54.625Z,99275.56
2022-08-17T14:58:21.129Z,99266.22
2022-08-17T15:00:50.881Z,99265.31
2022-08-17T15:03:18.453Z,99263.47
2022-08-17T15:05:46.674Z,99271.47
2022-08-17T15:08:13.881Z,99259.19
2022-08-17T15:10:40.392Z,99264.94
2022-08-17T15:13:33.425Z,99272.53
2022-08-17T15:15:59.997Z,99267.81
2022-08-17T15:18:26.805Z,99280.88
2022-08-17T15:20:56.107Z,99271.75
2022-08-17T15:23:25.059Z,99267.63
2022-08-17T15:25:53.291Z,99264.41
2022-08-17T15:28:23.162Z,99263.84
2022-08-17T15:30:50.757Z,99266.53
2022-08-17T15:33:20.407Z,99265.94
2022-08-17T15:35:51.092Z,99267.09
2022-08-17T15:38:18.474Z,99265.22
2022-08-17T15:40:47.462Z,99259.50
2022-08-17T15:43:26.497Z,99266.34
2022-08-17T15:46:00.264Z,99258.53
2022-08-17T15:48:41.504Z,99258.25
2022-08-17T15:51:24.127Z,99252.22
2022-08-17T15:53:53.022Z,99256.88
2022-08-17T15:56:19.843Z,99252.13
2022-08-17T15:58:47.908Z,99245.59
2022-08-17T16:02:24.750Z,99239.75
2022-08-17T16:04:07.197Z,99239.94
2022-08-17T16:06:50.705Z,99231.28
2022-08-17T16:09:17.339Z,99221.38
2022-08-17T16:11:46.009Z,99227.94
2022-08-17T16:14:20.062Z,99222.47
2022-08-17T16:16:46.589Z,99217.00
2022-08-17T16:19:13.007Z,99219.03
2022-08-17T16:21:43.213Z,99229.78
2022-08-17T16:24:13.395Z,99230.25
2022-08-17T16:26:41.720Z,99227.31
2022-08-17T16:29:08.730Z,99224.91
2022-08-17T16:31:37.509Z,99223.50
2022-08-17T16:34:17.388Z,99217.19
2022-08-17T16:36:51.735Z,99222.31
2022-08-17T16:39:22.661Z,99225.78
2022-08-17T16:41:50.307Z,99227.06
2022-08-17T16:44:19.281Z,99231.41
2022-08-17T16:46:47.158Z,99238.66
2022-08-17T16:49:25.722Z,99239.28
2022-08-17T16:52:03.046Z,99241.06
2022-08-17T16:54:29.501Z,99233.19
2022-08-17T16:56:56.003Z,99235.72
2022-08-17T16:59:31.146Z,99232.19
2022-08-17T17:02:04.776Z,99239.31
2022-08-17T17:04:35.227Z,99234.38
2022-08-17T17:07:37.319Z,99230.81
2022-08-17T17:10:08.270Z,99230.00
2022-08-17T17:12:59.573Z,99229.13
2022-08-17T17:15:27.179Z,99227.38
2022-08-17T17:17:58.312Z,99237.59
2022-08-17T17:20:35.442Z,99241.91
2022-08-17T17:23:07.675Z,99246.84
2022-08-17T17:25:48.999Z,99245.63
2022-08-17T17:28:43.250Z,99249.50
2022-08-17T17:31:18.705Z,99241.13
2022-08-17T17:33:50.925Z,99246.78
2022-08-17T17:36:40.362Z,99266.56
2022-08-17T17:39:14.290Z,99271.41
2022-08-17T17:42:14.481Z,99264.22
2022-08-17T17:44:49.504Z,99256.63
2022-08-17T17:47:16.209Z,99263.16
2022-08-17T17:49:44.978Z,99249.72
2022-08-17T17:52:26.158Z,99259.78
2022-08-17T17:55:06.007Z,99253.56
2022-08-17T17:58:02.401Z,99262.41
2022-08-17T18:00:50.890Z,99263.69
2022-08-17T18:03:23.138Z,99268.22
2022-08-17T18:06:10.350Z,99273.63
2022-08-17T18:08:40.231Z,99263.53
2022-08-17T18:11:13.371Z,99266.75
2022-08-17T18:13:53.496Z,99262.13
2022-08-17T18:16:20.250Z,99267.25
2022-08-17T18:18:50.003Z,99262.91
2022-08-17T18:21:21.123Z,99264.16
2022-08-17T18:24:01.619Z,99267.56
2022-08-17T18:27:08.479Z,99273.22
2022-08-17T18:29:41.135Z,99272.19
2022-08-17T18:32:28.602Z,99269.72
2022-08-17T18:35:27.670Z,99274.22
2022-08-17T18:37:55.732Z,99274.50
2022-08-17T18:40:32.676Z,99269.66
2022-08-17T18:43:26.079Z,99271.38
2022-08-17T18:45:55.706Z,99266.97
2022-08-17T18:48:25.236Z,99263.72
2022-08-17T18:50:53.833Z,99261.25
2022-08-17T18:53:34.291Z,99262.97
2022-08-17T18:56:44.602Z,99269.91
2022-08-17T18:59:16.721Z,99264.44
2022-08-17T19:01:52.755Z,99265.31
2022-08-17T19:04:32.747Z,99260.66
2022-08-17T19:07:08.524Z,99270.66
2022-08-17T19:09:38.842Z,99269.59
2022-08-17T19:12:09.153Z,99276.53
2022-08-17T19:14:36.193Z,99277.09
2022-08-17T19:17:11.684Z,99270.16
2022-08-17T19:20:13.374Z,99266.34
2022-08-17T19:22:55.436Z,99274.66
2022-08-17T19:25:27.689Z,99275.75
2022-08-17T19:28:20.438Z,99275.81
2022-08-17T19:31:01.331Z,99270.84
2022-08-17T19:33:29.417Z,99271.16
2022-08-17T19:36:06.678Z,99270.84
2022-08-17T19:38:56.261Z,99268.91
2022-08-17T19:41:28.199Z,99272.78
2022-08-17T19:44:14.127Z,99268.09
2022-08-17T19:46:50.697Z,99270.31
2022-08-17T19:49:58.315Z,99270.88
2022-08-17T19:53:01.987Z,99266.16
2022-08-17T19:55:53.647Z,99269.75
2022-08-17T19:58:41.791Z,99261.97
2022-08-17T20:01:14.770Z,99275.22
2022-08-17T20:03:52.534Z,99267.50
2022-08-17T20:06:20.054Z,99276.81
2022-08-17T20:08:55.841Z,99263.84
2022-08-17T20:11:28.474Z,99266.34
2022-08-17T20:14:00.919Z,99261.66
2022-08-17T20:16:27.518Z,99259.97
2022-08-17T20:19:03.862Z,99271.25
2022-08-17T20:21:46.327Z,99272.63
2022-08-17T20:24:28.067Z,99266.81
2022-08-17T20:27:01.147Z,99261.50
2022-08-17T20:29:37.686Z,99264.50
2022-08-17T20:32:19.245Z,99261.72
2022-08-17T20:34:46.851Z,99268.00
2022-08-17T20:37:13.330Z,99267.72
2022-08-17T20:39:45.697Z,99260.47
2022-08-17T20:42:15.300Z,99260.97
2022-08-17T20:44:43.160Z,99269.22
2022-08-17T20:47:13.148Z,99259.78
2022-08-17T20:49:44.416Z,99265.22
2022-08-17T20:52:18.358Z,99262.41
2022-08-17T20:54:57.331Z,99266.22
2022-08-17T20:57:32.833Z,99264.50
2022-08-17T21:00:14.463Z,99257.84
2022-08-17T21:02:44.411Z,99266.56
2022-08-17T21:05:27.439Z,99269.00
2022-08-17T21:07:59.891Z,99270.84
2022-08-17T21:10:26.337Z,99263.34
2022-08-17T21:13:01.643Z,99275.88
2022-08-17T21:15:35.534Z,99278.00
2022-08-17T21:18:20.199Z,99274.31
2022-08-17T21:21:17.443Z,99278.28
2022-08-17T21:24:03.150Z,99289.47
2022-08-17T21:26:50.718Z,99294.69
2022-08-17T21:29:31.191Z,99302.19
2022-08-17T21:32:03.335Z,99302.84
2022-08-17T21:34:39.573Z,99307.06
2022-08-17T21:37:29.439Z,99316.41
2022-08-17T21:40:10.090Z,99311.94
2022-08-17T21:42:39.450Z,99315.44
2022-08-17T21:45:22.400Z,99318.94
2022-08-17T21:48:07.311Z,99316.09
2022-08-17T21:50:35.501Z,99324.44
2022-08-17T21:53:03.347Z,99317.19
2022-08-17T21:55:31.741Z,99321.78
2022-08-17T21:58:13.463Z,99324.78
2022-08-17T22:00:44.310Z,99322.53
2022-08-17T22:03:23.756Z,99334.09
2022-08-17T22:05:51.388Z,99324.78
2022-08-17T22:08:21.229Z,99321.47
2022-08-17T22:10:50.992Z,99325.78
2022-08-17T22:13:17.765Z,99325.19
2022-08-17T22:15:47.543Z,99316.97
2022-08-17T22:18:21.672Z,99314.22
2022-08-17T22:20:50.732Z,99317.81
2022-08-17T22:23:47.699Z,99312.31
2022-08-17T22:26:15.870Z,99313.66
2022-08-17T22:28:45.877Z,99319.63
2022-08-17T22:31:24.886Z,99318.72
2022-08-17T22:34:03.492Z,99314.25
2022-08-17T22:36:33.836Z,99307.25
2022-08-17T22:39:02.870Z,99316.22
2022-08-17T22:41:34.454Z,99316.38
2022-08-17T22:44:14.188Z,99321.78
2022-08-17T22:46:51.749Z,99321.09
2022-08-17T22:49:36.559Z,99331.22
2022-08-17T22:52:23.977Z,99336.88
2022-08-17T22:55:25.691Z,99339.88
2022-08-17T22:58:10.799Z,99337.88
2022-08-17T23:00:46.170Z,99340.50
2022-08-17T23:03:13.099Z,99334.34
2022-08-17T23:05:44.870Z,99337.25
2022-08-17T23:08:13.494Z,99336.06
2022-08-17T23:10:41.395Z,99330.72
2022-08-17T23:13:11.774Z,99320.00
2022-08-17T23:15:41.015Z,99323.94
2022-08-17T23:18:08.755Z,99328.97
2022-08-17T23:20:38.051Z,99328.53
2022-08-17T23:23:06.731Z,99328.88
2022-08-17T23:25:35.340Z,99318.66
2022-08-17T23:28:05.607Z,99320.47
2022-08-17T23:30:34.910Z,99317.38
2022-08-17T23:33:05.862Z,99318.69
2022-08-17T23:35:40.563Z,99332.16
2022-08-17T23:38:10.310Z,99323.00
2022-08-17T23:40:39.483Z,99326.56
2022-08-17T23:43:11.446Z,99325.38
2022-08-17T23:45:50.726Z,99317.31
2022-08-17T23:48:34.949Z,99323.50
2022-08-17T23:51:19.312Z,99325.06
2022-08-17T23:53:48.323Z,99325.66
2022-08-17T23:56:15.344Z,99330.78
2022-08-17T23:58:43.200Z,99326.25
